Time;durP1;ratioP1;P1;durP2;ratioP2;P2;SDS_P1;SDS_P2;PMS_P1;PMS_P2;Temp;Humidity;BMP_temperature;BMP_pressure;BME280_temperature;BME280_humidity;BME280_pressure;Samples;Min_cycle;Max_cycle;Signal;HPM_P1;HPM_P2
2021/07/26 00:00:59;;;;;;;13.48;4.68;;;;;;;18.13;63.56;100069.66;4841551;29;20509;-57
2021/07/26 00:03:25;;;;;;;11.07;5.03;;;;;;;18.09;63.79;100076.91;4838260;29;20058;-57
2021/07/26 00:05:57;;;;;;;8.68;4.78;;;;;;;18.07;64.11;100084.03;4839261;29;20054;-57
2021/07/26 00:08:25;;;;;;;7.70;3.83;;;;;;;17.99;64.14;100085.44;4844647;29;20451;-55
2021/07/26 00:11:01;;;;;;;9.23;4.38;;;;;;;17.98;64.51;100096.88;4839158;29;20509;-57
2021/07/26 00:13:27;;;;;;;13.55;4.20;;;;;;;17.96;64.28;100077.69;4839268;29;20527;-56
2021/07/26 00:15:53;;;;;;;11.38;4.80;;;;;;;17.94;64.44;100084.84;4838882;29;20124;-56
2021/07/26 00:18:20;;;;;;;14.25;4.70;;;;;;;17.92;64.71;100078.81;4839026;29;20643;-57
2021/07/26 00:20:45;;;;;;;9.05;4.38;;;;;;;17.87;65.11;100079.09;4839167;29;20049;-58
2021/07/26 00:23:11;;;;;;;9.25;4.95;;;;;;;17.88;64.94;100087.84;4839308;29;20042;-62
2021/07/26 00:25:37;;;;;;;8.68;4.57;;;;;;;17.83;65.26;100082.84;4837140;29;20678;-59
2021/07/26 00:28:03;;;;;;;14.38;4.63;;;;;;;17.84;65.39;100083.69;5313870;23;20024;-58
2021/07/26 00:30:28;;;;;;;11.27;4.85;;;;;;;17.83;65.33;100079.34;4835727;29;20785;-58
2021/07/26 00:32:54;;;;;;;9.75;4.78;;;;;;;17.82;65.44;100083.78;4835765;29;20094;-57
2021/07/26 00:35:20;;;;;;;10.32;4.40;;;;;;;17.79;65.79;100086.59;4834955;29;20601;-56
2021/07/26 00:37:45;;;;;;;8.52;4.05;;;;;;;17.76;65.66;100079.72;4835183;29;20111;-58
2021/07/26 00:40:11;;;;;;;8.77;4.20;;;;;;;17.73;65.96;100079.03;4818904;29;20654;-58
2021/07/26 00:42:37;;;;;;;8.75;4.00;;;;;;;17.75;65.99;100090.31;4815350;29;20043;-57
2021/07/26 00:45:04;;;;;;;8.35;4.32;;;;;;;17.77;65.90;100085.81;4818458;29;20407;-58
2021/07/26 00:47:30;;;;;;;7.15;3.92;;;;;;;17.78;66.08;100084.88;4816617;29;20062;-56
2021/07/26 00:49:56;;;;;;;12.73;6.22;;;;;;;17.84;65.70;100089.81;4816536;29;20046;-57
2021/07/26 00:52:22;;;;;;;11.65;4.65;;;;;;;17.86;65.69;100093.16;4815433;29;20077;-57
2021/07/26 00:54:48;;;;;;;10.07;4.18;;;;;;;17.88;65.65;100095.72;4815508;29;20704;-57
2021/07/26 00:57:14;;;;;;;8.70;4.20;;;;;;;17.89;65.82;100100.06;4818520;29;20054;-57
2021/07/26 00:59:40;;;;;;;9.88;4.95;;;;;;;17.89;65.81;100089.53;5315060;23;20072;-57
2021/07/26 01:02:06;;;;;;;10.10;4.65;;;;;;;17.91;65.92;100092.91;4829925;29;20042;-56
2021/07/26 01:04:32;;;;;;;10.40;4.50;;;;;;;17.91;65.94;100092.91;4814393;29;20179;-56
2021/07/26 01:06:58;;;;;;;8.00;4.68;;;;;;;17.93;65.96;100091.03;4824595;29;20038;-57
2021/07/26 01:09:24;;;;;;;11.38;4.85;;;;;;;17.94;66.00;100093.59;4827469;29;20062;-57
2021/07/26 01:11:49;;;;;;;11.73;5.50;;;;;;;17.93;65.47;100089.25;4829101;29;20046;-58
2021/07/26 01:14:16;;;;;;;7.93;4.53;;;;;;;17.97;65.50;100097.81;4833860;29;20050;-57
2021/07/26 01:16:48;;;;;;;13.40;4.85;;;;;;;17.96;65.69;100098.75;4832530;29;20149;-56
2021/07/26 01:22:09;;;;;;;9.10;4.20;;;;;;;17.90;65.66;100097.31;4939843;23;20127;-56
2021/07/26 01:24:34;;;;;;;13.57;5.15;;;;;;;17.88;65.34;100095.72;4831036;29;20861;-58
2021/07/26 01:27:00;;;;;;;10.18;4.60;;;;;;;17.87;65.19;100094.88;4832857;29;20133;-56
2021/07/26 01:29:26;;;;;;;9.55;4.88;;;;;;;17.85;64.78;100088.84;4832258;29;20202;-55
2021/07/26 01:31:51;;;;;;;10.93;4.05;;;;;;;17.87;64.43;100102.75;5307994;23;20067;-57
2021/07/26 01:34:17;;;;;;;10.60;4.03;;;;;;;17.84;63.87;100100.31;4824482;29;20145;-56
2021/07/26 01:36:43;;;;;;;10.05;4.60;;;;;;;17.82;63.82;100106.59;4823640;29;20053;-58
2021/07/26 01:39:08;;;;;;;9.90;4.65;;;;;;;17.82;63.98;100112.69;4824186;29;20042;-57
2021/07/26 01:41:37;;;;;;;7.75;4.38;;;;;;;17.82;63.90;100109.22;4824101;29;20050;-58
2021/07/26 01:44:03;;;;;;;11.68;4.80;;;;;;;17.85;64.18;100112.50;4823762;29;20095;-56
2021/07/26 01:46:52;;;;;;;14.75;4.40;;;;;;;17.87;64.25;100109.81;4822683;29;20145;-57
2021/07/26 01:49:39;;;;;;;12.07;5.38;;;;;;;17.86;64.10;100103.69;4823013;29;20510;-56
2021/07/26 01:52:09;;;;;;;12.45;5.20;;;;;;;17.75;64.37;100090.31;5280348;23;20142;-52
2021/07/26 01:54:34;;;;;;;6.85;4.55;;;;;;;17.84;64.26;100102.09;4818366;29;20109;-57
2021/07/26 01:57:00;;;;;;;8.25;4.85;;;;;;;17.86;64.64;100108.09;4821430;29;20119;-57
2021/07/26 01:59:27;;;;;;;11.80;4.55;;;;;;;17.87;64.66;100115.06;4821756;29;20042;-58
2021/07/26 02:01:53;;;;;;;10.75;4.82;;;;;;;17.88;64.66;100106.25;4821528;29;20478;-57
2021/07/26 02:04:18;;;;;;;11.57;4.57;;;;;;;17.86;64.52;100106.31;4822668;29;20053;-57
2021/07/26 02:06:44;;;;;;;10.25;4.40;;;;;;;17.89;64.54;100116.69;4822823;29;20053;-58
2021/07/26 02:09:09;;;;;;;10.38;4.10;;;;;;;17.88;64.29;100114.13;4822626;29;20056;-57
2021/07/26 02:11:35;;;;;;;7.15;4.15;;;;;;;17.87;64.27;100115.06;4820769;29;20154;-56
2021/07/26 02:14:04;;;;;;;7.40;4.60;;;;;;;17.90;64.18;100112.28;5323130;23;20556;-57
2021/07/26 02:16:30;;;;;;;;;;;;;;;17.92;64.15;100116.50;4840958;29;20052;-57
2021/07/26 02:18:55;;;;;;;10.77;4.68;;;;;;;17.92;63.61;100118.28;4839813;29;19921;-57
2021/07/26 02:21:21;;;;;;;10.20;4.55;;;;;;;17.94;63.84;100124.31;4823839;29;20072;-55
2021/07/26 02:23:47;;;;;;;13.23;4.68;;;;;;;17.95;64.37;100113.69;4838131;29;20432;-57
2021/07/26 02:26:12;;;;;;;7.82;3.95;;;;;;;17.97;63.65;100116.22;4821634;29;20095;-56
2021/07/26 02:28:38;;;;;;;8.80;3.90;;;;;;;17.95;63.22;100115.50;4817226;29;20046;-55
2021/07/26 02:31:03;;;;;;;9.32;4.65;;;;;;;17.98;63.31;100128.47;4815354;29;20739;-56
2021/07/26 02:36:25;;;;;;;10.07;4.40;;;;;;;18.02;62.76;100127.34;4902553;23;20152;-58
2021/07/26 02:38:50;;;;;;;6.57;4.10;;;;;;;18.03;62.72;100124.63;4836041;29;20132;-56
2021/07/26 02:41:16;;;;;;;7.22;4.05;;;;;;;18.06;62.41;100128.84;4837436;29;20528;-56
2021/07/26 02:43:42;;;;;;;10.27;4.15;;;;;;;18.07;62.03;100128.75;4833652;29;20045;-56
2021/07/26 02:46:09;;;;;;;7.25;4.35;;;;;;;18.10;61.69;100133.03;4836452;29;20426;-56
2021/07/26 02:48:36;;;;;;;8.80;4.28;;;;;;;18.12;61.49;100133.75;4835190;29;20054;-57
2021/07/26 02:51:02;;;;;;;9.27;4.30;;;;;;;18.14;61.40;100138.00;4835286;29;20064;-58
2021/07/26 02:53:28;;;;;;;8.80;4.22;;;;;;;18.17;61.21;100140.44;4835497;29;20531;-57
2021/07/26 02:55:54;;;;;;;6.88;4.15;;;;;;;18.21;61.38;100135.88;4837391;29;20046;-57
2021/07/26 02:58:20;;;;;;;7.32;4.00;;;;;;;18.24;61.15;100146.22;4835469;29;20754;-56
2021/07/26 03:00:47;;;;;;;7.75;4.10;;;;;;;18.27;61.03;100139.91;4836456;29;20421;-57
2021/07/26 03:03:13;;;;;;;6.95;4.05;;;;;;;18.29;60.94;100143.31;4841310;29;20045;-58
2021/07/26 03:05:38;;;;;;;7.75;3.88;;;;;;;18.29;60.64;100140.69;4839281;29;20045;-57
2021/07/26 03:08:04;;;;;;;8.45;3.95;;;;;;;18.33;60.28;100140.41;4838791;29;20087;-57
2021/07/26 03:10:30;;;;;;;11.45;3.47;;;;;;;18.33;60.38;100140.41;4840849;29;20053;-58
2021/07/26 03:12:56;;;;;;;6.20;3.92;;;;;;;18.35;60.07;100146.44;4840420;29;20054;-58
2021/07/26 03:15:21;;;;;;;6.97;3.90;;;;;;;18.40;60.17;100139.13;4838318;29;20102;-58
2021/07/26 03:17:48;;;;;;;7.13;3.63;;;;;;;18.44;59.91;100143.25;4836877;29;20044;-57
2021/07/26 03:20:13;;;;;;;11.02;4.03;;;;;;;18.51;59.41;100144.59;4836820;29;20052;-57
2021/07/26 03:22:49;;;;;;;8.15;3.85;;;;;;;18.55;59.72;100150.53;4840932;29;20046;-57
2021/07/26 03:25:15;;;;;;;5.65;3.17;;;;;;;18.59;59.51;100146.78;4840244;29;20049;-57
2021/07/26 03:27:41;;;;;;;8.02;3.55;;;;;;;18.62;59.08;100149.25;4833808;29;20042;-57
2021/07/26 03:30:07;;;;;;;7.45;3.35;;;;;;;18.65;59.05;100145.56;4836265;29;20046;-57
2021/07/26 03:32:33;;;;;;;8.43;3.35;;;;;;;18.69;58.65;100150.56;4834374;29;20584;-58
2021/07/26 03:34:58;;;;;;;5.97;3.35;;;;;;;18.75;58.62;100155.47;4834863;29;20114;-57
2021/07/26 03:37:24;;;;;;;9.07;3.45;;;;;;;18.75;58.05;100147.56;4834614;29;20038;-57
2021/07/26 03:39:49;;;;;;;5.57;3.20;;;;;;;18.79;58.13;100145.59;4839716;29;20041;-58
2021/07/26 03:42:16;;;;;;;5.65;2.50;;;;;;;18.84;58.04;100152.25;4839019;29;20056;-60
2021/07/26 03:44:42;;;;;;;5.57;3.25;;;;;;;18.88;57.74;100145.03;4841067;29;20041;-56
2021/07/26 03:47:08;;;;;;;5.72;2.58;;;;;;;18.91;57.23;100150.97;4836606;29;20532;-58
2021/07/26 03:49:33;;;;;;;6.47;2.88;;;;;;;18.97;57.34;100152.38;4834049;29;20042;-58
2021/07/26 03:51:59;;;;;;;7.35;2.90;;;;;;;19.01;57.18;100143.31;4834927;29;20053;-58
2021/07/26 03:54:24;;;;;;;6.25;2.95;;;;;;;19.08;57.10;100151.72;4833802;29;20038;-58
2021/07/26 03:56:50;;;;;;;5.80;2.60;;;;;;;19.13;56.96;100145.22;4835427;29;20081;-57
2021/07/26 03:59:16;;;;;;;6.30;2.80;;;;;;;19.18;56.75;100150.19;4836267;29;20069;-57
2021/07/26 04:01:41;;;;;;;6.65;2.58;;;;;;;19.21;56.46;100145.56;4834129;29;20674;-57
2021/07/26 04:04:07;;;;;;;5.68;2.70;;;;;;;19.26;56.20;100151.41;4835088;29;20057;-58
2021/07/26 04:06:32;;;;;;;6.65;2.78;;;;;;;19.33;56.00;100152.72;4837764;29;20095;-57
2021/07/26 04:08:59;;;;;;;5.35;2.67;;;;;;;19.39;55.92;100154.13;4840319;29;20079;-58
2021/07/26 04:11:33;;;;;;;9.73;2.28;;;;;;;19.42;55.35;100148.66;4840245;29;20566;-56
2021/07/26 04:14:03;;;;;;;7.22;2.50;;;;;;;19.45;55.20;100144.06;4840210;29;20049;-57
2021/07/26 04:16:29;;;;;;;6.32;2.80;;;;;;;19.55;55.33;100154.03;4835463;29;20044;-56
2021/07/26 04:18:56;;;;;;;6.50;2.97;;;;;;;19.62;55.24;100148.28;4835431;29;20045;-57
2021/07/26 04:21:29;;;;;;;4.97;2.70;;;;;;;19.67;54.79;100142.72;4834307;29;20045;-56
2021/07/26 04:23:56;;;;;;;5.75;2.65;;;;;;;19.74;54.62;100149.25;4834722;29;20052;-56
2021/07/26 04:26:22;;;;;;;3.38;2.05;;;;;;;19.80;54.52;100149.72;5322463;23;20149;-56
2021/07/26 04:29:06;;;;;;;7.25;2.35;;;;;;;19.85;54.03;100145.00;4839912;29;20494;-57
2021/07/26 04:31:32;;;;;;;4.65;2.60;;;;;;;19.86;53.55;100149.31;4827126;29;20042;-57
2021/07/26 04:33:58;;;;;;;5.57;2.15;;;;;;;19.92;53.66;100148.09;4821997;29;20065;-57
2021/07/26 04:36:23;;;;;;;3.20;2.25;;;;;;;19.98;53.35;100149.47;4838349;29;20508;-57
2021/07/26 04:38:49;;;;;;;4.10;2.42;;;;;;;20.03;53.42;100150.00;4839174;29;20045;-57
2021/07/26 04:41:15;;;;;;;3.60;2.25;;;;;;;20.08;53.49;100145.28;4838808;29;20042;-56
2021/07/26 04:43:40;;;;;;;4.38;2.65;;;;;;;20.11;53.55;100145.91;4837525;29;20049;-60
2021/07/26 04:46:09;;;;;;;4.85;2.40;;;;;;;20.16;53.59;100146.44;4838375;29;20195;-58
2021/07/26 04:48:35;;;;;;;6.20;2.80;;;;;;;20.19;53.50;100142.78;4838714;29;20079;-57
2021/07/26 04:51:01;;;;;;;8.32;2.75;;;;;;;20.21;53.42;100141.72;4822458;29;20144;-57
2021/07/26 04:53:26;;;;;;;6.88;2.72;;;;;;;20.23;53.48;100144.25;4838555;29;20075;-57
2021/07/26 04:55:52;;;;;;;4.60;2.42;;;;;;;20.26;53.23;100131.69;4830004;29;20069;-57
2021/07/26 04:58:37;;;;;;;7.95;2.90;;;;;;;20.29;53.33;100136.78;4824472;29;20061;-58
2021/07/26 05:01:03;;;;;;;3.38;2.40;;;;;;;20.38;53.30;100131.84;4834364;29;20049;-58
2021/07/26 05:03:28;;;;;;;5.25;2.78;;;;;;;20.43;53.02;100135.03;4842203;29;20049;-58
2021/07/26 05:08:49;;;;;;;6.45;2.58;;;;;;;20.64;53.27;100133.56;4803605;29;20153;-57
2021/07/26 05:11:21;;;;;;;7.78;2.55;;;;;;;20.73;53.17;100132.91;4805729;29;20047;-58
2021/07/26 05:13:46;;;;;;;5.57;2.40;;;;;;;20.80;52.47;100136.00;4805755;29;20127;-56
2021/07/26 05:16:13;;;;;;;4.50;2.97;;;;;;;20.84;52.33;100135.66;4811148;29;20050;-58
2021/07/26 05:18:39;;;;;;;5.57;2.28;;;;;;;20.94;51.89;100133.22;4806328;29;20513;-57
2021/07/26 05:21:04;;;;;;;4.68;2.70;;;;;;;20.99;51.70;100129.31;4805510;29;20055;-58
2021/07/26 05:23:30;;;;;;;4.80;2.40;;;;;;;21.07;51.31;100127.00;4805283;29;20065;-55
2021/07/26 05:25:56;;;;;;;6.78;2.85;;;;;;;21.16;50.89;100128.16;4804280;29;20083;-57
2021/07/26 05:28:21;;;;;;;4.18;2.47;;;;;;;21.24;51.07;100123.19;5306129;23;20061;-56
2021/07/26 05:30:48;;;;;;;3.90;2.55;;;;;;;21.31;50.53;100119.13;4837287;29;20074;-58
2021/07/26 05:33:14;;;;;;;4.10;2.20;;;;;;;21.42;50.57;100127.13;4833412;29;20537;-59
2021/07/26 05:35:41;;;;;;;2.90;2.28;;;;;;;21.51;49.63;100125.66;4836461;29;20038;-58
2021/07/26 05:38:07;;;;;;;6.18;2.83;;;;;;;21.56;49.12;100126.97;4831675;29;20054;-58
2021/07/26 05:40:33;;;;;;;3.35;2.13;;;;;;;21.70;48.79;100122.50;4818074;29;20042;-57
2021/07/26 05:42:59;;;;;;;5.60;2.10;;;;;;;21.74;48.37;100111.56;4819698;29;20046;-57
2021/07/26 05:45:25;;;;;;;5.03;1.77;;;;;;;21.89;47.36;100118.38;4818199;29;20038;-56
2021/07/26 05:47:50;;;;;;;5.07;1.80;;;;;;;21.98;47.11;100122.19;4822485;29;20053;-56
2021/07/26 05:50:19;;;;;;;5.32;2.30;;;;;;;22.08;46.81;100125.00;4824161;29;20598;-57
2021/07/26 05:52:48;;;;;;;5.22;2.30;;;;;;;22.14;46.79;100121.91;4824461;29;20493;-58
2021/07/26 05:55:15;;;;;;;7.65;2.10;;;;;;;22.25;46.32;100125.41;4817154;29;20053;-57
2021/07/26 05:57:49;;;;;;;4.65;2.05;;;;;;;22.36;45.53;100121.94;4805775;29;20528;-57
2021/07/26 06:00:17;;;;;;;2.83;1.90;;;;;;;22.35;45.76;100121.09;4827011;29;20609;-58
2021/07/26 06:02:43;;;;;;;3.75;1.83;;;;;;;22.38;45.71;100117.38;4820836;29;20098;-59
2021/07/26 06:05:09;;;;;;;4.05;2.22;;;;;;;22.47;45.42;100116.66;4823109;29;20050;-58
2021/07/26 06:07:34;;;;;;;3.60;1.88;;;;;;;22.55;45.01;100113.44;4823598;29;20050;-58
2021/07/26 06:10:00;;;;;;;4.57;2.28;;;;;;;22.61;44.85;100107.66;4818507;29;20050;-58
2021/07/26 06:12:26;;;;;;;6.25;2.40;;;;;;;22.73;44.89;100112.03;4819351;29;20534;-57
2021/07/26 06:14:52;;;;;;;5.15;1.90;;;;;;;22.87;44.71;100121.59;4817649;29;20058;-58
2021/07/26 06:17:18;;;;;;;5.25;1.95;;;;;;;23.00;44.06;100120.47;4821504;29;20053;-58
2021/07/26 06:19:44;;;;;;;4.00;2.25;;;;;;;23.09;44.04;100117.09;4819683;29;20110;-58
2021/07/26 06:22:10;;;;;;;7.90;2.10;;;;;;;23.22;43.62;100114.31;4818219;29;20054;-57
2021/07/26 06:24:36;;;;;;;8.70;1.90;;;;;;;23.27;43.34;100109.50;4817164;29;20050;-57
2021/07/26 06:27:01;;;;;;;3.85;2.05;;;;;;;23.47;43.59;100113.22;4818597;29;20243;-58
2021/07/26 06:29:27;;;;;;;4.72;2.15;;;;;;;23.64;42.71;100105.59;4817038;29;20459;-57
2021/07/26 06:31:57;;;;;;;7.07;2.15;;;;;;;23.84;42.37;100111.06;4818767;29;20046;-58
2021/07/26 06:34:23;;;;;;;4.18;1.83;;;;;;;24.18;41.79;100111.81;4821684;29;20054;-59
2021/07/26 06:36:49;;;;;;;2.78;1.65;;;;;;;24.63;40.69;100110.56;4822186;29;20098;-60
2021/07/26 06:39:14;;;;;;;4.22;1.88;;;;;;;25.08;40.13;100107.56;5309568;23;20058;-58
2021/07/26 06:41:40;;;;;;;4.10;1.98;;;;;;;25.79;39.00;100118.97;4839648;29;20042;-58
2021/07/26 06:44:06;;;;;;;6.18;1.98;;;;;;;26.75;37.42;100108.19;4832004;29;20531;-60
2021/07/26 06:46:32;;;;;;;3.45;1.80;;;;;;;27.57;35.25;100113.63;4845175;29;20602;-59
2021/07/26 06:48:57;;;;;;;3.60;2.22;;;;;;;28.11;33.67;100112.63;4834044;29;20050;-57
2021/07/26 06:51:23;;;;;;;6.85;1.98;;;;;;;28.71;32.38;100113.63;4821835;29;20076;-58
2021/07/26 06:53:49;;;;;;;4.95;2.05;;;;;;;29.21;31.72;100124.44;4822389;29;20042;-58
2021/07/26 06:56:15;;;;;;;5.65;2.15;;;;;;;30.31;30.67;100125.03;4825079;29;20074;-57
2021/07/26 06:58:43;;;;;;;4.03;2.50;;;;;;;31.12;29.15;100118.72;4825665;29;20050;-59
2021/07/26 07:01:11;;;;;;;4.72;2.63;;;;;;;32.32;27.76;100126.22;4826896;29;20045;-58
2021/07/26 07:03:44;;;;;;;6.70;2.67;;;;;;;33.18;26.29;100128.41;4822309;29;20128;-58
2021/07/26 07:06:16;;;;;;;6.68;2.50;;;;;;;33.55;24.76;100122.03;4821763;29;20042;-58
2021/07/26 07:11:38;;;;;;;3.75;1.67;;;;;;;34.37;24.57;100125.16;5429091;24;20062;-59
2021/07/26 07:14:04;;;;;;;5.47;2.50;;;;;;;35.04;24.15;100124.56;4838569;29;20050;-59
2021/07/26 07:16:29;;;;;;;6.45;2.38;;;;;;;35.68;22.82;100130.50;4836247;29;20090;-57
2021/07/26 07:18:55;;;;;;;3.58;2.42;;;;;;;35.90;22.34;100129.31;4840001;29;20046;-58
2021/07/26 07:21:31;;;;;;;4.07;2.47;;;;;;;36.56;21.60;100137.47;5316517;24;20520;-60
2021/07/26 07:24:02;;;;;;;4.63;2.20;;;;;;;36.43;21.35;100126.69;4850483;29;20050;-60
2021/07/26 07:26:29;;;;;;;4.95;2.72;;;;;;;37.03;21.13;100135.53;4850410;29;20042;-58
2021/07/26 07:28:56;;;;;;;4.78;2.55;;;;;;;36.86;21.58;100130.59;4866672;29;20525;-54
2021/07/26 07:31:27;;;;;;;4.30;2.20;;;;;;;36.50;20.74;100139.16;4843161;29;20080;-53
2021/07/26 07:33:54;;;;;;;6.63;2.70;;;;;;;36.21;21.14;100131.47;4842706;29;20046;-56
2021/07/26 07:36:20;;;;;;;8.35;2.67;;;;;;;36.35;21.15;100121.44;4851205;29;20528;-54
2021/07/26 07:38:46;;;;;;;4.53;2.58;;;;;;;37.14;20.61;100134.91;4863978;29;20059;-54
2021/07/26 07:41:12;;;;;;;6.07;2.30;;;;;;;37.53;20.29;100123.88;4861715;29;20671;-55
2021/07/26 07:43:38;;;;;;;4.00;2.20;;;;;;;37.50;19.60;100135.19;4854170;29;20054;-57
2021/07/26 07:46:04;;;;;;;4.95;1.80;;;;;;;36.63;20.03;100130.22;4854511;29;20045;-54
2021/07/26 07:48:31;;;;;;;2.67;1.80;;;;;;;36.27;20.23;100121.69;4852687;29;20049;-56
2021/07/26 07:50:57;;;;;;;2.58;2.20;;;;;;;36.79;19.89;100129.78;5321830;23;20374;-57
2021/07/26 07:53:23;;;;;;;2.85;2.15;;;;;;;37.03;19.44;100125.53;4828340;29;20046;-57
2021/07/26 07:55:51;;;;;;;3.00;2.22;;;;;;;37.07;19.75;100128.63;4830663;29;20045;-55
2021/07/26 07:58:16;;;;;;;10.03;7.63;;;;;;;38.14;19.24;100123.34;4830441;29;20053;-54
2021/07/26 08:00:42;;;;;;;3.38;2.42;;;;;;;38.30;18.73;100130.94;4829522;29;20046;-56
2021/07/26 08:03:08;;;;;;;2.83;2.50;;;;;;;38.58;18.35;100128.63;4817974;29;20072;-56
2021/07/26 08:05:34;;;;;;;2.92;2.22;;;;;;;39.01;17.83;100127.78;4819625;29;20506;-55
2021/07/26 08:08:00;;;;;;;3.78;2.50;;;;;;;39.02;18.10;100115.84;4821003;29;20129;-58
2021/07/26 08:10:26;;;;;;;4.43;2.40;;;;;;;38.95;17.42;100121.34;4821793;29;20058;-57
2021/07/26 08:12:51;;;;;;;6.43;2.53;;;;;;;39.10;17.78;100122.88;4822524;29;20471;-58
2021/07/26 08:15:18;;;;;;;5.47;2.78;;;;;;;38.64;17.88;100126.88;4816755;29;20056;-55
2021/07/26 08:17:46;;;;;;;4.70;2.60;;;;;;;39.22;17.31;100124.59;4822487;29;20514;-57
2021/07/26 08:20:14;;;;;;;6.63;2.30;;;;;;;39.55;17.06;100135.09;4819432;29;20042;-58
2021/07/26 08:22:40;;;;;;;4.55;2.30;;;;;;;38.88;17.59;100126.03;4822110;29;20099;-57
2021/07/26 08:25:07;;;;;;;3.28;2.15;;;;;;;37.63;18.85;100128.88;4818270;29;20432;-57
2021/07/26 08:27:49;;;;;;;3.35;2.33;;;;;;;36.03;19.89;100113.06;4816139;29;20052;-58
2021/07/26 08:30:19;;;;;;;3.95;1.83;;;;;;;35.22;20.93;100109.53;4813887;29;20050;-56
2021/07/26 08:32:45;;;;;;;4.50;2.03;;;;;;;34.58;21.89;100114.31;5318137;23;20092;-57
2021/07/26 08:35:10;;;;;;;4.40;2.50;;;;;;;34.09;22.36;100113.44;4840008;29;20592;-57
2021/07/26 08:37:36;;;;;;;3.08;1.80;;;;;;;33.37;23.32;100118.88;4839954;29;20037;-56
2021/07/26 08:40:02;;;;;;;3.28;2.30;;;;;;;32.30;24.37;100120.19;4839372;29;20403;-58
2021/07/26 08:42:30;;;;;;;9.63;2.28;;;;;;;31.72;25.15;100118.09;4835104;29;20134;-55
2021/07/26 08:44:56;;;;;;;4.88;1.90;;;;;;;31.65;25.80;100109.06;4821635;29;20207;-53
2021/07/26 08:47:22;;;;;;;2.80;2.20;;;;;;;31.55;25.94;100111.94;4821022;29;20565;-54
2021/07/26 08:49:48;;;;;;;3.20;1.95;;;;;;;30.96;25.86;100102.63;4819952;29;20053;-53
2021/07/26 08:52:16;;;;;;;4.85;2.50;;;;;;;30.43;26.68;100106.75;4816927;29;20051;-55
2021/07/26 08:54:43;;;;;;;5.47;2.03;;;;;;;30.21;27.26;100108.25;4819700;29;20070;-53
2021/07/26 08:57:09;;;;;;;5.50;2.10;;;;;;;30.31;27.42;100111.59;4830483;29;20425;-53
2021/07/26 08:59:34;;;;;;;3.63;2.05;;;;;;;29.75;28.05;100111.56;4813256;29;20046;-56
2021/07/26 09:02:00;;;;;;;6.82;2.30;;;;;;;29.44;28.57;100100.59;4820403;29;20047;-54
2021/07/26 09:04:26;;;;;;;4.00;2.22;;;;;;;29.22;29.15;100102.00;4816934;29;20043;-55
2021/07/26 09:06:53;;;;;;;5.43;2.10;;;;;;;29.17;29.10;100098.97;4808715;29;20144;-54
2021/07/26 09:09:18;;;;;;;5.25;2.00;;;;;;;29.11;29.11;100104.13;4821491;29;20494;-55
2021/07/26 09:11:45;;;;;;;4.90;1.90;;;;;;;28.79;28.96;100099.47;4828888;29;20034;-55
2021/07/26 09:14:11;;;;;;;3.60;1.85;;;;;;;28.56;29.46;100097.31;4828887;29;20045;-53
2021/07/26 09:16:37;;;;;;;4.15;2.22;;;;;;;28.34;30.11;100099.66;4827403;29;20038;-53
2021/07/26 09:19:06;;;;;;;6.95;2.20;;;;;;;28.07;29.92;100093.41;4837450;29;20053;-53
2021/07/26 09:21:52;;;;;;;2.80;2.03;;;;;;;27.88;30.34;100093.56;4821999;29;20096;-54
2021/07/26 09:24:28;;;;;;;8.20;1.83;;;;;;;27.86;30.96;100097.38;4821929;29;20054;-53
2021/07/26 09:27:10;;;;;;;4.68;2.00;;;;;;;27.76;30.51;100092.13;4821704;29;20115;-56
2021/07/26 09:29:36;;;;;;;2.95;1.88;;;;;;;27.88;30.74;100095.41;4821142;29;20053;-54
2021/07/26 09:32:03;;;;;;;2.63;2.10;;;;;;;27.97;30.66;100098.00;4820909;29;20434;-52
2021/07/26 09:34:29;;;;;;;3.90;2.10;;;;;;;28.13;30.54;100095.50;4819941;29;20046;-52
2021/07/26 09:36:56;;;;;;;3.97;2.35;;;;;;;28.41;30.25;100090.88;4821455;29;20057;-50
2021/07/26 09:39:26;;;;;;;6.05;2.10;;;;;;;28.97;29.46;100095.72;4821692;29;20050;-54
2021/07/26 09:41:53;;;;;;;7.90;2.20;;;;;;;29.14;29.18;100093.13;4823345;29;20058;-53
2021/07/26 09:44:23;;;;;;;3.10;1.95;;;;;;;29.07;29.67;100082.19;4822162;29;20039;-53
2021/07/26 09:46:56;;;;;;;4.40;2.35;;;;;;;28.77;30.32;100090.75;4813786;29;20046;-53
2021/07/26 09:49:21;;;;;;;2.22;1.67;;;;;;;28.65;30.37;100093.69;4823691;29;20054;-53
2021/07/26 09:52:04;;;;;;;7.45;2.35;;;;;;;28.67;30.80;100092.69;4824379;29;20042;-53
2021/07/26 09:54:52;;;;;;;8.13;2.15;;;;;;;28.71;30.63;100089.53;4824205;29;20468;-52
2021/07/26 09:57:24;;;;;;;7.10;1.95;;;;;;;28.47;30.56;100081.38;4824045;29;20054;-52
2021/07/26 09:59:51;;;;;;;6.15;2.33;;;;;;;28.38;31.01;100093.00;4824195;29;20074;-52
2021/07/26 10:05:13;;;;;;;4.50;2.00;;;;;;;27.84;30.83;100089.53;4881199;24;20122;-53
2021/07/26 10:07:38;;;;;;;3.90;1.80;;;;;;;27.70;31.38;100088.22;4858077;29;20045;-50
2021/07/26 10:10:04;;;;;;;2.92;1.83;;;;;;;27.47;31.32;100078.94;4857703;29;20052;-53
2021/07/26 10:12:31;;;;;;;3.70;1.73;;;;;;;27.47;31.54;100083.44;4858235;29;20069;-50
2021/07/26 10:14:56;;;;;;;4.53;2.25;;;;;;;27.66;31.44;100078.00;4858493;29;20137;-51
2021/07/26 10:17:22;;;;;;;3.03;1.75;;;;;;;28.85;29.82;100083.59;4858321;29;20078;-55
2021/07/26 10:19:48;;;;;;;4.47;1.92;;;;;;;29.30;28.98;100083.31;4844631;29;20416;-53
2021/07/26 10:22:15;;;;;;;4.22;2.00;;;;;;;29.75;28.22;100080.22;4854346;29;20049;-51
2021/07/26 10:24:58;;;;;;;2.63;1.80;;;;;;;30.41;28.22;100073.03;4858347;29;20046;-50
2021/07/26 10:27:29;;;;;;;11.35;2.67;;;;;;;31.66;26.10;100073.94;4858441;29;20061;-54
2021/07/26 10:29:56;;;;;;;9.35;3.45;;;;;;;32.40;25.33;100066.91;4851241;29;20107;-51
2021/07/26 10:32:34;;;;;;;5.78;2.20;;;;;;;32.63;24.41;100062.31;4838774;29;20062;-50
2021/07/26 10:35:24;;;;;;;3.17;2.30;;;;;;;32.75;24.98;100070.78;4848096;29;20070;-53
2021/07/26 10:37:50;;;;;;;4.57;2.67;;;;;;;33.48;24.62;100069.88;4840959;29;20050;-54
2021/07/26 10:40:29;;;;;;;3.30;2.17;;;;;;;33.09;24.51;100064.81;4845878;29;20522;-54
2021/07/26 10:45:43;;;;;;;5.30;2.95;;;;;;;33.07;24.80;100058.78;5131321;23;20062;-53
2021/07/26 10:48:30;;;;;;;4.20;3.10;;;;;;;34.08;23.93;100058.63;4845676;29;20050;-52
2021/07/26 10:50:58;;;;;;;5.20;2.50;;;;;;;36.00;21.40;100058.53;4843658;29;20046;-54
2021/07/26 10:53:50;;;;;;;3.55;2.50;;;;;;;36.24;21.66;100067.91;4844370;29;20309;-52
2021/07/26 10:56:16;;;;;;;6.45;2.90;;;;;;;37.06;19.39;100064.63;5310949;23;20134;-53
2021/07/26 10:59:01;;;;;;;7.15;3.60;;;;;;;38.06;18.52;100072.00;4835131;29;20064;-51
2021/07/26 11:01:27;;;;;;;8.45;3.45;;;;;;;38.46;17.88;100065.19;4833417;29;20046;-53
2021/07/26 11:03:54;;;;;;;3.53;2.40;;;;;;;37.82;18.14;100057.34;4842389;29;20124;-52
2021/07/26 11:06:38;;;;;;;2.53;2.20;;;;;;;36.97;19.21;100061.31;4842413;29;20052;-49
2021/07/26 11:09:24;;;;;;;3.13;2.70;;;;;;;36.43;18.64;100051.63;4839627;29;20053;-55
2021/07/26 11:11:52;;;;;;;4.82;2.50;;;;;;;35.31;19.34;100044.44;4835818;29;20118;-52
2021/07/26 11:17:13;;;;;;;3.65;2.30;;;;;;;35.08;19.88;100037.47;5427286;23;20065;-49
2021/07/26 11:19:44;;;;;;;3.05;2.05;;;;;;;34.59;20.10;100039.50;4859708;29;20041;-48
2021/07/26 11:22:15;;;;;;;4.95;2.15;;;;;;;34.42;20.47;100037.13;4864415;29;20101;-51
2021/07/26 11:24:41;;;;;;;3.25;2.50;;;;;;;34.70;20.61;100038.97;4869385;29;20922;-47
2021/07/26 11:27:13;;;;;;;3.40;2.55;;;;;;;35.48;19.59;100038.47;4855705;29;20137;-53
2021/07/26 11:29:38;;;;;;;4.03;3.00;;;;;;;37.30;18.79;100036.78;4847119;29;20042;-50
2021/07/26 11:32:04;;;;;;;6.80;2.75;;;;;;;39.24;17.33;100038.13;4841610;29;20046;-51
2021/07/26 11:34:33;;;;;;;2.88;2.33;;;;;;;39.39;16.85;100040.47;4851085;29;20093;-52
2021/07/26 11:37:14;;;;;;;2.25;1.95;;;;;;;40.08;16.60;100045.25;4847954;29;20041;-50
2021/07/26 11:39:52;;;;;;;3.70;3.28;;;;;;;40.54;16.02;100046.34;4845424;29;20077;-48
2021/07/26 11:42:28;;;;;;;5.55;4.13;;;;;;;41.93;15.21;100045.00;4848015;29;20153;-50
2021/07/26 11:44:54;;;;;;;3.38;2.63;;;;;;;41.59;15.69;100044.16;4849642;29;20052;-49
2021/07/26 11:47:41;;;;;;;4.88;2.47;;;;;;;39.68;15.93;100036.03;4850527;29;20053;-51